Dawson City Airport
CYDA : rendu visible

Aérodrome :











RETROUVEZ-NOUS SUR...

 
LOGIN :

S'inscrire | Disclaimer

   EN    FR    IT 

 









Légende :    VFR   VFR Marginal   IFR   IFR Intensif   IFR Très Intensif
Visi : 
Plafond : 
>= 8 km
>= 3000ft
5 à 8 km
1000 à 3000 ft
1500m à 5 km
500 à 1000 ft
800 à 1500m
200 à 500 ft
< 800m
< 200 ft
Symboles :   Orages  Brouillard  Fortes neiges  Fortes précipitations  Vent > 20 kt






- Altitude de l'aérodrome : 1215 ft
- Code IATA : YDA


CYDA - Dawson City

DERNIER METAR :
  • 062100Z 08007KT 20SM BKN036 OVC090 M30/M34 A3004 RMK SC6AC2 SLP233

METARs EXPIRÉS :
  • 062000Z 07003KT 030V100 20SM SCT032 OVC038 M31/M35 A3006 RMK SC3SC5 SLP238
  • 061900Z 00000KT 20SM FEW057 FEW130 M33/M37 A3005 RMK SC1AC1 SLP238

TAF AMD TAF CYDA
Valide du 06 à 17h jusqu'au 06 à 23h UTC


061702Z 0617/0623 VRB03KT P6SM BKN050
TEMPO 0617/0623 P6SM -SN OVC050 RMK NXT FCST WILL BE ISSUED AT 071545Z



MET'MAP, la Météo Aéronautique d'un coup d'oeil ! - Copyright ORBIFLY Décembre 2007 - Disclaimer

ORBIFLY MET'MAP TEAM :

Programmation & Développement : Alexandra Zaïnal
Sur une idée originale de : Baudouin d'Aumeries
Assistance à la programmation : Marc-Olivier Méhu
Soutien technique & logistique : Manuel Goepfert

Contact : metmap@orbifly.com




SOURCES & CREDITS :

   NOAA       Earth
Advisory